Time;durP1;ratioP1;P1;durP2;ratioP2;P2;SDS_P1;SDS_P2;PMS_P1;PMS_P2;Temp;Humidity;BMP_temperature;BMP_pressure;BME280_temperature;BME280_humidity;BME280_pressure;Samples;Min_cycle;Max_cycle;Signal;HPM_P1;HPM_P2
2022/08/15 00:00:56;;;;;;;8.00;7.40;;;;;26.00;99266.00;;;;2078687;28;20343;-54
2022/08/15 00:01:57;;;;;;;8.17;7.47;;;;;26.00;99060.00;;;;2083049;28;20216;-54
2022/08/15 00:02:57;;;;;;;7.90;7.30;;;;;26.00;99277.00;;;;2086171;28;20685;-55
2022/08/15 00:03:58;;;;;;;7.43;6.93;;;;;26.00;99271.00;;;;2086185;28;20455;-54
2022/08/15 00:05:01;;;;;;;7.50;7.00;;;;;26.00;99271.00;;;;2086278;28;20212;-53
2022/08/15 00:06:03;;;;;;;7.47;6.87;;;;;26.00;99269.00;;;;2086206;28;20443;-54
2022/08/15 00:07:04;;;;;;;8.13;7.53;;;;;26.00;99278.00;;;;2084590;28;20459;-55
2022/08/15 00:08:05;;;;;;;10.60;6.93;;;;;26.00;99249.00;;;;2077497;28;20570;-55
2022/08/15 00:09:18;;;;;;;7.00;6.50;;;;;26.00;99275.00;;;;2078508;28;20213;-59
2022/08/15 00:10:18;;;;;;;8.13;7.33;;;;;26.00;99267.00;;;;2077380;28;20985;-55
2022/08/15 00:11:22;;;;;;;7.80;7.07;;;;;26.00;99271.00;;;;2081813;28;20463;-55
2022/08/15 00:12:23;;;;;;;6.80;6.30;;;;;26.00;99267.00;;;;2088133;28;20212;-54
2022/08/15 00:13:25;;;;;;;7.53;6.80;;;;;26.00;99295.00;;;;2094997;28;20475;-55
2022/08/15 00:14:32;;;;;;;7.07;6.37;;;;;26.00;99269.00;;;;2085751;28;20221;-54
2022/08/15 00:15:32;;;;;;;7.53;7.00;;;;;26.00;99269.00;;;;2076608;28;20877;-54
2022/08/15 00:16:36;;;;;;;7.33;6.83;;;;;26.00;99273.00;;;;2078355;28;20452;-54
2022/08/15 00:17:37;;;;;;;7.53;6.80;;;;;26.00;99265.00;;;;2076095;28;20217;-54
2022/08/15 00:18:37;;;;;;;7.60;7.00;;;;;26.00;99274.00;;;;2078157;28;20456;-59
2022/08/15 00:19:39;;;;;;;7.00;6.50;;;;;26.00;99265.00;;;;2087078;28;20447;-57
2022/08/15 00:20:40;;;;;;;7.23;6.63;;;;;26.00;99266.00;;;;2077694;28;20221;-54
2022/08/15 00:21:43;;;;;;;7.10;6.60;;;;;26.00;99261.00;;;;2081957;28;20470;-54
2022/08/15 00:22:46;;;;;;;6.73;6.23;;;;;26.00;99271.00;;;;2076125;28;20622;-55
2022/08/15 00:23:46;;;;;;;8.00;7.40;;;;;26.00;99266.00;;;;2079682;28;20456;-54
2022/08/15 00:24:47;;;;;;;8.40;7.63;;;;;26.00;99271.00;;;;2087131;28;20956;-54
2022/08/15 00:25:49;;;;;;;6.90;6.40;;;;;26.00;99274.00;;;;2087143;28;20217;-54
2022/08/15 00:26:50;;;;;;;7.53;7.00;;;;;26.00;99267.00;;;;2085478;28;20466;-54
2022/08/15 00:27:51;;;;;;;7.10;6.60;;;;;26.00;99266.00;;;;2084794;28;20450;-55
2022/08/15 00:28:51;;;;;;;7.33;6.70;;;;;26.00;99269.00;;;;2087084;28;20983;-56
2022/08/15 00:29:52;;;;;;;7.97;7.30;;;;;26.00;99267.00;;;;2087483;28;20216;-55
2022/08/15 00:30:53;;;;;;;7.13;6.63;;;;;26.00;99261.00;;;;2088394;28;20609;-55
2022/08/15 00:31:53;;;;;;;7.67;7.07;;;;;26.00;99266.00;;;;2088256;28;20537;-54
2022/08/15 00:32:55;;;;;;;7.30;6.70;;;;;26.00;99261.00;;;;2080931;28;20205;-55
2022/08/15 00:33:55;;;;;;;7.67;6.97;;;;;26.00;99270.00;;;;2084284;28;20274;-55
2022/08/15 00:34:56;;;;;;;7.70;7.10;;;;;26.00;99256.00;;;;2088088;28;20505;-54
2022/08/15 00:35:56;;;;;;;7.03;6.40;;;;;26.00;99269.00;;;;2088131;28;20252;-54
2022/08/15 00:36:57;;;;;;;7.67;6.97;;;;;26.00;99259.00;;;;2080494;28;20209;-55
2022/08/15 00:37:57;;;;;;;7.47;6.77;;;;;26.00;99256.00;;;;2078391;28;20255;-55
2022/08/15 00:38:59;;;;;;;7.47;6.93;;;;;26.00;99263.00;;;;2080183;28;21034;-55
2022/08/15 00:40:00;;;;;;;7.33;6.73;;;;;26.00;99263.00;;;;2079476;28;20308;-55
2022/08/15 00:42:26;;;;;;;7.13;6.43;;;;;26.00;99270.00;;;;2087629;28;20304;-54
2022/08/15 00:43:26;;;;;;;7.63;7.00;;;;;26.00;99266.00;;;;2087842;28;20459;-54
2022/08/15 00:44:34;;;;;;;6.80;6.20;;;;;25.90;99262.00;;;;2088133;28;20221;-54
2022/08/15 00:45:35;;;;;;;7.87;6.87;;;;;26.00;99265.00;;;;2087822;28;20221;-54
2022/08/15 00:46:35;;;;;;;6.77;6.17;;;;;25.90;99254.00;;;;2080169;28;21003;-55
2022/08/15 00:47:36;;;;;;;7.33;6.73;;;;;25.90;99267.00;;;;2079044;28;20567;-55
2022/08/15 00:48:43;;;;;;;7.10;6.53;;;;;25.90;99268.00;;;;2078115;28;20690;-55
2022/08/15 00:49:43;;;;;;;7.00;6.40;;;;;25.90;99264.00;;;;2082999;28;20209;-55
2022/08/15 00:50:44;;;;;;;7.03;6.47;;;;;25.90;99266.00;;;;2086778;28;20463;-55
2022/08/15 00:51:49;;;;;;;7.77;7.00;;;;;25.90;99261.00;;;;2086174;28;20231;-55
2022/08/15 00:52:50;;;;;;;7.53;6.90;;;;;25.90;99264.00;;;;2079579;28;20225;-55
2022/08/15 00:53:55;;;;;;;7.00;6.40;;;;;25.90;99270.00;;;;2083556;28;20440;-55
2022/08/15 00:54:57;;;;;;;7.83;7.13;;;;;25.90;99268.00;;;;2087510;28;20220;-55
2022/08/15 00:55:58;;;;;;;6.90;6.40;;;;;25.90;99221.00;;;;2087326;28;20452;-54
2022/08/15 00:57:02;;;;;;;7.30;6.60;;;;;25.90;99256.00;;;;2085578;28;21212;-55
2022/08/15 00:58:02;;;;;;;6.40;5.80;;;;;25.90;99266.00;;;;2078208;28;20208;-55
2022/08/15 00:59:04;;;;;;;7.30;6.70;;;;;25.90;99258.00;;;;2074613;28;20448;-55
2022/08/15 01:00:17;;;;;;;7.87;7.27;;;;;25.90;99265.00;;;;2067926;28;20242;-56
2022/08/15 01:01:17;;;;;;;7.53;6.83;;;;;25.90;99260.00;;;;2078918;28;20817;-57
2022/08/15 01:02:19;;;;;;;8.50;7.80;;;;;25.90;99226.00;;;;2082417;28;20452;-56
2022/08/15 01:03:24;;;;;;;10.23;6.50;;;;;25.90;99267.00;;;;2079030;28;20690;-56
2022/08/15 01:04:25;;;;;;;7.00;6.50;;;;;25.90;99267.00;;;;2086412;28;20459;-56
2022/08/15 01:05:26;;;;;;;7.37;6.87;;;;;25.90;99234.00;;;;2078911;28;20451;-56
2022/08/15 01:06:26;;;;;;;6.60;6.10;;;;;25.90;99271.00;;;;2078870;28;20714;-56
2022/08/15 01:07:26;;;;;;;7.13;6.53;;;;;25.90;99268.00;;;;2078112;28;20705;-55
2022/08/15 01:08:29;;;;;;;7.47;6.73;;;;;25.90;99275.00;;;;2087054;28;20205;-56
2022/08/15 01:09:30;;;;;;;6.53;6.03;;;;;25.90;99258.00;;;;2079005;28;20296;-56
2022/08/15 01:10:31;;;;;;;7.00;6.50;;;;;25.90;99259.00;;;;2054764;28;20439;-55
2022/08/15 01:11:34;;;;;;;6.53;5.93;;;;;25.90;99264.00;;;;2062862;28;20219;-55
2022/08/15 01:12:36;;;;;;;8.40;6.70;;;;;25.90;99273.00;;;;2055599;28;20612;-55
2022/08/15 01:13:37;;;;;;;7.50;6.80;;;;;25.90;99269.00;;;;2062879;28;20883;-56
2022/08/15 01:14:38;;;;;;;6.97;6.30;;;;;25.90;99266.00;;;;2063121;28;20462;-55
2022/08/15 01:15:38;;;;;;;6.20;5.63;;;;;25.90;99267.00;;;;2071106;28;20214;-55
2022/08/15 01:16:39;;;;;;;7.57;6.87;;;;;25.90;99256.00;;;;2070849;28;20321;-55
2022/08/15 01:17:39;;;;;;;6.63;6.13;;;;;25.90;99270.00;;;;2070025;28;20221;-55
2022/08/15 01:18:40;;;;;;;7.60;7.00;;;;;25.90;99263.00;;;;2078892;28;20213;-55
2022/08/15 01:19:45;;;;;;;7.30;6.70;;;;;25.90;99257.00;;;;2076923;28;20217;-55
2022/08/15 01:20:45;;;;;;;6.60;6.10;;;;;25.90;99273.00;;;;2080097;28;20283;-55
2022/08/15 01:22:10;;;;;;;6.93;6.43;;;;;25.90;99266.00;;;;2079281;28;20510;-55
2022/08/15 01:23:31;;;;;;;7.43;6.83;;;;;25.90;99237.00;;;;2084767;28;20220;-55
2022/08/15 01:24:56;;;;;;;6.97;6.47;;;;;25.90;99268.00;;;;2084824;28;20522;-55
2022/08/15 01:26:04;;;;;;;8.20;6.70;;;;;25.90;99268.00;;;;2074211;28;20543;-56
2022/08/15 01:27:04;;;;;;;6.93;6.40;;;;;25.90;99250.00;;;;2073856;28;20471;-55
2022/08/15 01:28:10;;;;;;;6.83;6.23;;;;;25.90;99262.00;;;;2062705;28;20529;-55
2022/08/15 01:29:10;;;;;;;7.07;6.57;;;;;25.90;99261.00;;;;2063314;28;20219;-55
2022/08/15 01:30:15;;;;;;;6.83;6.33;;;;;25.80;99266.00;;;;2069800;28;20453;-55
2022/08/15 01:31:17;;;;;;;6.87;6.37;;;;;25.90;99269.00;;;;2086347;28;20219;-55
2022/08/15 01:32:18;;;;;;;6.90;6.40;;;;;25.80;99263.00;;;;2084682;28;20456;-55
2022/08/15 01:33:19;;;;;;;6.70;6.20;;;;;25.80;99268.00;;;;2086715;28;20501;-55
2022/08/15 01:34:20;;;;;;;7.33;6.73;;;;;25.80;99270.00;;;;2073419;28;20288;-56
2022/08/15 01:35:20;;;;;;;6.93;6.33;;;;;25.80;99260.00;;;;2078716;28;20452;-57
2022/08/15 01:36:21;;;;;;;6.93;6.33;;;;;25.80;99265.00;;;;2079818;28;20686;-56
2022/08/15 01:37:22;;;;;;;7.67;6.97;;;;;25.80;99264.00;;;;2069583;28;20302;-55
2022/08/15 01:38:23;;;;;;;6.87;6.37;;;;;25.80;99256.00;;;;2070442;28;20512;-55
2022/08/15 01:39:27;;;;;;;7.07;6.57;;;;;25.80;99294.00;;;;2079532;28;20448;-55
2022/08/15 01:40:39;;;;;;;6.17;5.67;;;;;25.80;99262.00;;;;2078632;28;20307;-56
2022/08/15 01:41:42;;;;;;;6.17;5.70;;;;;25.80;99256.00;;;;2078901;28;20444;-56
2022/08/15 01:42:44;;;;;;;6.70;6.20;;;;;25.80;99265.00;;;;2078141;28;21011;-56
2022/08/15 01:44:40;;;;;;;7.00;6.50;;;;;25.80;99265.00;;;;2083609;28;20562;-56
2022/08/15 01:45:41;;;;;;;8.33;7.03;;;;;25.80;99263.00;;;;2060597;28;20461;-56
2022/08/15 01:46:49;;;;;;;6.20;5.60;;;;;25.80;99262.00;;;;2065938;28;20448;-55
2022/08/15 01:48:00;;;;;;;7.20;6.70;;;;;25.80;99259.00;;;;2070693;28;20210;-55
2022/08/15 01:49:05;;;;;;;6.40;5.90;;;;;25.80;99263.00;;;;2078512;28;20468;-56
2022/08/15 01:50:10;;;;;;;7.67;7.07;;;;;25.30;99267.00;;;;2084438;28;20459;-54
2022/08/15 01:51:10;;;;;;;6.90;6.40;;;;;25.70;99281.00;;;;2087632;28;20455;-54
2022/08/15 01:52:10;;;;;;;6.27;5.63;;;;;25.80;99265.00;;;;2080365;28;20792;-54
2022/08/15 01:53:25;;;;;;;6.60;6.10;;;;;25.70;99275.00;;;;2079845;28;20688;-55
2022/08/15 01:54:26;;;;;;;6.90;6.30;;;;;25.80;99224.00;;;;2079254;28;20323;-55
2022/08/15 01:55:33;;;;;;;6.10;5.60;;;;;25.80;99272.00;;;;2075755;28;20460;-55
2022/08/15 01:56:39;;;;;;;6.57;6.07;;;;;25.70;99266.00;;;;2071556;28;20517;-55
2022/08/15 01:57:39;;;;;;;6.33;5.90;;;;;25.70;99265.00;;;;2070547;28;20979;-55
2022/08/15 01:58:42;;;;;;;6.43;5.93;;;;;25.70;99274.00;;;;2082941;28;20668;-54
2022/08/15 01:59:42;;;;;;;7.00;6.50;;;;;25.70;99272.00;;;;2086924;28;20327;-54
2022/08/15 02:00:57;;;;;;;6.30;5.80;;;;;25.80;99267.00;;;;2086902;28;21464;-54
2022/08/15 02:02:00;;;;;;;6.40;5.83;;;;;25.80;99273.00;;;;2086291;28;20228;-55
2022/08/15 02:03:00;;;;;;;6.13;5.63;;;;;25.80;99273.00;;;;2077486;28;20802;-54
2022/08/15 02:04:01;;;;;;;6.20;5.70;;;;;25.80;99267.00;;;;2081963;28;20495;-55
2022/08/15 02:05:01;;;;;;;6.40;5.80;;;;;25.80;99260.00;;;;2078281;28;20861;-54
2022/08/15 02:06:06;;;;;;;8.80;6.07;;;;;25.90;99260.00;;;;2076854;28;20198;-55
2022/08/15 02:07:12;;;;;;;5.63;5.23;;;;;25.90;99264.00;;;;2086815;28;20212;-55
2022/08/15 02:08:13;;;;;;;5.87;5.33;;;;;25.50;99300.00;;;;2080761;28;20697;-55
2022/08/15 02:09:16;;;;;;;6.00;5.50;;;;;25.90;99265.00;;;;2086876;28;20447;-55
2022/08/15 02:10:16;;;;;;;6.30;5.70;;;;;25.90;99268.00;;;;2083947;28;20671;-55
2022/08/15 02:11:17;;;;;;;6.10;5.37;;;;;25.90;99261.00;;;;2087639;28;20537;-55
2022/08/15 02:12:20;;;;;;;6.20;5.70;;;;;25.90;99271.00;;;;2081100;28;20210;-55
2022/08/15 02:13:21;;;;;;;5.50;5.10;;;;;25.90;99275.00;;;;2086726;28;20463;-55
2022/08/15 02:14:21;;;;;;;6.00;5.40;;;;;25.90;99270.00;;;;2081951;28;20999;-55
2022/08/15 02:15:22;;;;;;;5.20;4.80;;;;;25.90;99275.00;;;;2078717;28;20220;-55
2022/08/15 02:16:30;;;;;;;5.60;5.10;;;;;25.90;99269.00;;;;2085880;28;20288;-55
2022/08/15 02:17:31;;;;;;;5.73;5.10;;;;;25.90;99273.00;;;;2086006;28;20444;-55
2022/08/15 02:18:31;;;;;;;5.40;5.00;;;;;25.90;99268.00;;;;2086647;28;20467;-54
2022/08/15 02:19:31;;;;;;;5.67;5.17;;;;;25.90;99270.00;;;;2080731;28;20206;-56
2022/08/15 02:20:32;;;;;;;5.37;4.97;;;;;25.90;99268.00;;;;2082977;28;20298;-55
2022/08/15 02:21:32;;;;;;;6.07;5.57;;;;;25.90;99264.00;;;;2086613;28;20240;-55
2022/08/15 02:22:32;;;;;;;5.00;4.60;;;;;25.90;99271.00;;;;2079375;28;20302;-55
2022/08/15 02:23:33;;;;;;;5.67;5.27;;;;;25.90;99268.00;;;;2078847;28;20210;-54
2022/08/15 02:24:33;;;;;;;5.80;5.30;;;;;25.90;99271.00;;;;2082877;28;20212;-54
2022/08/15 02:25:35;;;;;;;7.67;5.40;;;;;25.90;99267.00;;;;2087101;28;20215;-55
2022/08/15 02:26:35;;;;;;;5.70;5.20;;;;;25.90;99267.00;;;;2085824;28;20212;-54
2022/08/15 02:27:36;;;;;;;5.60;5.10;;;;;25.90;99266.00;;;;2082214;28;20452;-55
2022/08/15 02:28:39;;;;;;;6.30;5.70;;;;;26.00;99270.00;;;;2086436;28;20220;-55
2022/08/15 02:29:39;;;;;;;5.20;4.80;;;;;26.00;99262.00;;;;2087640;28;20513;-55
2022/08/15 02:30:42;;;;;;;5.43;5.00;;;;;26.00;99266.00;;;;2085020;28;21287;-57
2022/08/15 02:31:42;;;;;;;33.93;6.20;;;;;26.00;99263.00;;;;2068868;28;20269;-55
2022/08/15 02:32:43;;;;;;;7.07;5.03;;;;;25.90;99268.00;;;;2070108;28;20464;-55
2022/08/15 02:33:58;;;;;;;5.50;4.50;;;;;25.90;99234.00;;;;2081631;28;20232;-54
2022/08/15 02:34:59;;;;;;;8.80;4.43;;;;;25.90;99266.00;;;;2077862;28;20503;-55
2022/08/15 02:35:59;;;;;;;4.70;4.30;;;;;25.90;99253.00;;;;2071682;28;20494;-54
2022/08/15 02:37:03;;;;;;;4.67;3.90;;;;;25.90;99260.00;;;;2084337;28;20521;-55
2022/08/15 02:38:05;;;;;;;5.27;4.80;;;;;25.90;99260.00;;;;2086417;28;20697;-55
2022/08/15 02:39:07;;;;;;;4.90;4.27;;;;;25.90;99262.00;;;;2079702;28;20968;-54
2022/08/15 02:40:10;;;;;;;4.40;4.00;;;;;25.80;99260.00;;;;2086551;28;20510;-55
2022/08/15 02:41:10;;;;;;;5.07;3.97;;;;;25.90;99258.00;;;;2085717;28;20459;-54
2022/08/15 02:42:11;;;;;;;4.50;4.10;;;;;25.80;99259.00;;;;2077615;28;20500;-54
2022/08/15 02:43:12;;;;;;;4.90;4.40;;;;;25.80;99261.00;;;;2077936;28;20698;-55
2022/08/15 02:44:12;;;;;;;4.57;4.27;;;;;25.90;99259.00;;;;2084402;28;20464;-54
2022/08/15 02:45:13;;;;;;;5.00;4.50;;;;;25.60;99266.00;;;;2079136;28;20456;-54
2022/08/15 02:46:16;;;;;;;4.90;4.50;;;;;25.90;99263.00;;;;2077528;28;20221;-54
2022/08/15 02:47:18;;;;;;;4.43;4.00;;;;;25.90;99254.00;;;;2078355;28;20236;-54
2022/08/15 02:48:19;;;;;;;4.63;4.23;;;;;25.90;99256.00;;;;2078512;28;21050;-54
2022/08/15 02:49:19;;;;;;;4.70;3.80;;;;;25.90;99262.00;;;;2078958;28;20510;-54
2022/08/15 02:50:21;;;;;;;4.77;3.93;;;;;25.90;99263.00;;;;2078896;28;20217;-54
2022/08/15 02:51:22;;;;;;;4.57;4.17;;;;;25.90;99265.00;;;;2078758;28;20226;-54
2022/08/15 02:52:22;;;;;;;4.43;4.03;;;;;25.90;99265.00;;;;2085451;28;20455;-54
2022/08/15 02:53:22;;;;;;;4.23;3.83;;;;;25.90;99268.00;;;;2087256;28;20475;-54
2022/08/15 02:54:26;;;;;;;3.93;3.63;;;;;25.90;99256.00;;;;2084517;28;20236;-54
2022/08/15 02:55:26;;;;;;;4.43;4.03;;;;;25.80;99263.00;;;;2086434;28;20217;-54
2022/08/15 02:56:27;;;;;;;3.90;3.60;;;;;25.90;99259.00;;;;2080368;28;20495;-54
2022/08/15 02:57:28;;;;;;;5.23;3.67;;;;;25.90;99255.00;;;;2077772;28;20221;-54
2022/08/15 02:58:28;;;;;;;4.93;3.70;;;;;25.90;99263.00;;;;2078283;28;20345;-54
2022/08/15 02:59:30;;;;;;;4.17;3.87;;;;;25.90;99263.00;;;;2078166;28;20539;-53
2022/08/15 03:00:30;;;;;;;6.80;3.20;;;;;25.90;99263.00;;;;2078292;28;20225;-53
2022/08/15 03:01:33;;;;;;;4.10;3.73;;;;;25.90;99259.00;;;;2078233;28;20460;-54
2022/08/15 03:02:48;;;;;;;4.00;3.60;;;;;25.80;99260.00;;;;2078507;28;20249;-54
2022/08/15 03:03:49;;;;;;;4.30;3.90;;;;;25.90;99260.00;;;;2078149;28;20535;-54
2022/08/15 03:04:50;;;;;;;4.60;4.20;;;;;25.90;99261.00;;;;2078089;28;20571;-54
2022/08/15 03:05:50;;;;;;;4.83;3.73;;;;;25.80;99266.00;;;;2078308;28;20499;-54
2022/08/15 03:06:53;;;;;;;4.20;3.80;;;;;25.80;99262.00;;;;2078910;28;20278;-53
2022/08/15 03:07:54;;;;;;;3.80;3.50;;;;;25.80;99260.00;;;;2082399;28;20678;-54
2022/08/15 03:08:58;;;;;;;3.80;3.50;;;;;25.80;99269.00;;;;2086824;28;20545;-53
2022/08/15 03:09:58;;;;;;;4.17;3.77;;;;;25.80;99264.00;;;;2087164;28;20209;-54
2022/08/15 03:10:59;;;;;;;4.73;3.70;;;;;25.80;99260.00;;;;2086964;28;20466;-54
2022/08/15 03:12:00;;;;;;;3.70;3.40;;;;;25.80;99264.00;;;;2086841;28;20286;-54
2022/08/15 03:13:03;;;;;;;3.80;3.50;;;;;25.80;99259.00;;;;2087030;28;20216;-54
2022/08/15 03:14:08;;;;;;;4.13;3.73;;;;;25.80;99253.00;;;;2086902;28;20289;-54
2022/08/15 03:15:09;;;;;;;3.83;3.53;;;;;25.80;99255.00;;;;2085882;28;20463;-54
2022/08/15 03:16:11;;;;;;;3.73;3.20;;;;;25.80;99252.00;;;;2086317;28;20459;-53
2022/08/15 03:17:11;;;;;;;5.10;4.00;;;;;25.80;99258.00;;;;2086018;28;20460;-54
2022/08/15 03:18:12;;;;;;;5.93;3.67;;;;;25.80;99253.00;;;;2085537;28;21037;-54
2022/08/15 03:19:19;;;;;;;5.13;3.83;;;;;25.80;99257.00;;;;2086888;28;20530;-54
2022/08/15 03:20:19;;;;;;;4.30;3.80;;;;;25.80;99264.00;;;;2086177;28;20456;-53
2022/08/15 03:21:20;;;;;;;4.53;4.23;;;;;25.80;99266.00;;;;2086252;28;20949;-54
2022/08/15 03:22:20;;;;;;;3.70;3.40;;;;;25.80;99259.00;;;;2086940;28;20212;-53
2022/08/15 03:23:22;;;;;;;3.83;3.43;;;;;25.70;99268.00;;;;2085979;28;20412;-53
2022/08/15 03:24:22;;;;;;;4.30;3.63;;;;;25.70;99261.00;;;;2085936;28;20774;-54
2022/08/15 03:25:25;;;;;;;4.33;3.90;;;;;25.70;99265.00;;;;2086525;28;20456;-54
2022/08/15 03:26:26;;;;;;;4.40;3.60;;;;;25.70;99258.00;;;;2086347;28;20235;-53
2022/08/15 03:27:27;;;;;;;4.80;3.77;;;;;25.80;99257.00;;;;2085900;28;20521;-54
2022/08/15 03:28:29;;;;;;;5.90;3.93;;;;;25.80;99258.00;;;;2083700;28;20947;-54
2022/08/15 03:29:29;;;;;;;3.93;3.60;;;;;25.70;99264.00;;;;2077637;28;20217;-54
2022/08/15 03:30:30;;;;;;;4.10;3.73;;;;;25.70;99198.00;;;;2078096;28;21441;-54
2022/08/15 03:31:31;;;;;;;4.47;3.33;;;;;25.70;99261.00;;;;2069677;28;20217;-54
2022/08/15 03:32:32;;;;;;;3.77;3.37;;;;;25.70;99256.00;;;;2077972;28;20220;-54
2022/08/15 03:33:32;;;;;;;5.00;3.67;;;;;25.70;99258.00;;;;2078724;28;20856;-54
2022/08/15 03:34:33;;;;;;;4.60;3.47;;;;;25.60;99264.00;;;;2078678;28;20356;-54
2022/08/15 03:35:53;;;;;;;4.20;3.80;;;;;25.70;99263.00;;;;2078603;28;20304;-54
2022/08/15 03:36:54;;;;;;;3.63;3.33;;;;;25.60;99271.00;;;;2080659;28;20217;-54
2022/08/15 03:37:55;;;;;;;6.33;3.70;;;;;25.60;99262.00;;;;2085878;28;20976;-52
2022/08/15 03:38:56;;;;;;;5.30;3.73;;;;;25.60;99261.00;;;;2086868;28;20204;-54
2022/08/15 03:39:56;;;;;;;4.27;3.17;;;;;25.70;99265.00;;;;2086611;28;20443;-53
2022/08/15 03:40:57;;;;;;;5.30;3.90;;;;;25.70;99285.00;;;;2086815;28;20236;-54
2022/08/15 03:41:59;;;;;;;4.40;4.00;;;;;25.70;99263.00;;;;2087118;28;20451;-54
2022/08/15 03:43:02;;;;;;;3.97;3.60;;;;;25.60;99260.00;;;;2086805;28;20259;-54
2022/08/15 03:44:03;;;;;;;3.78;3.40;;;;;25.60;99259.00;;;;2086878;28;21128;-54
2022/08/15 03:45:08;;;;;;;5.40;3.20;;;;;25.60;99264.00;;;;2086814;28;20221;-54
2022/08/15 03:46:11;;;;;;;4.17;3.60;;;;;25.70;99262.00;;;;2085906;28;21017;-54
2022/08/15 03:47:11;;;;;;;3.60;3.30;;;;;25.60;99263.00;;;;2085629;28;20448;-54
2022/08/15 03:48:11;;;;;;;4.83;3.27;;;;;25.60;99259.00;;;;2086103;28;20463;-54
2022/08/15 03:49:13;;;;;;;3.33;3.03;;;;;25.60;99266.00;;;;2086803;28;20213;-54
2022/08/15 03:50:14;;;;;;;5.43;3.50;;;;;25.60;99268.00;;;;2086527;28;20255;-54
2022/08/15 03:51:16;;;;;;;6.10;3.57;;;;;25.60;99261.00;;;;2085944;28;20463;-54
2022/08/15 03:52:16;;;;;;;4.80;3.57;;;;;25.60;99265.00;;;;2081137;28;20219;-54
2022/08/15 03:53:16;;;;;;;5.53;3.10;;;;;25.60;99261.00;;;;2085788;28;20833;-54
2022/08/15 03:54:17;;;;;;;3.70;3.17;;;;;25.60;99260.00;;;;2086694;28;20270;-54
2022/08/15 03:55:17;;;;;;;4.07;2.83;;;;;25.60;99115.00;;;;2086191;28;20205;-54
2022/08/15 03:56:20;;;;;;;4.13;3.70;;;;;25.60;99265.00;;;;2086042;28;20610;-54
2022/08/15 03:57:20;;;;;;;5.73;3.20;;;;;25.60;99270.00;;;;2085240;28;20290;-54
2022/08/15 03:58:20;;;;;;;3.40;3.20;;;;;25.60;99262.00;;;;2086641;28;20455;-54
2022/08/15 03:59:21;;;;;;;3.53;3.23;;;;;25.60;99258.00;;;;2086698;28;20212;-54
2022/08/15 04:00:27;;;;;;;3.40;3.10;;;;;25.60;99253.00;;;;2085278;28;21002;-54
2022/08/15 04:01:29;;;;;;;5.40;3.43;;;;;25.60;99260.00;;;;2086445;28;20240;-54
2022/08/15 04:02:29;;;;;;;5.93;3.13;;;;;25.60;99247.00;;;;2086739;28;20479;-54
2022/08/15 04:03:29;;;;;;;4.40;3.10;;;;;25.60;99258.00;;;;2086623;28;20506;-54
2022/08/15 04:04:31;;;;;;;3.70;3.40;;;;;25.60;99258.00;;;;2086588;28;20213;-54
2022/08/15 04:05:31;;;;;;;5.97;3.67;;;;;25.50;99253.00;;;;2086817;28;20213;-54
2022/08/15 04:06:32;;;;;;;3.40;3.10;;;;;25.60;99254.00;;;;2086858;28;21997;-54
2022/08/15 04:07:33;;;;;;;5.17;3.30;;;;;25.60;99256.00;;;;2085249;28;20306;-53
2022/08/15 04:08:34;;;;;;;6.03;3.67;;;;;25.50;99258.00;;;;2086071;28;20216;-53
2022/08/15 04:09:34;;;;;;;8.07;3.63;;;;;25.50;99260.00;;;;2077671;28;20453;-54
2022/08/15 04:10:34;;;;;;;4.37;3.30;;;;;25.50;99257.00;;;;2069899;28;20256;-56
2022/08/15 04:11:35;;;;;;;4.07;3.30;;;;;25.50;99259.00;;;;2077934;28;20209;-56
2022/08/15 04:12:36;;;;;;;5.30;3.57;;;;;25.50;99264.00;;;;2081399;28;20219;-57
2022/08/15 04:13:36;;;;;;;3.73;3.43;;;;;25.50;99253.00;;;;2080630;28;20216;-56
2022/08/15 04:14:36;;;;;;;4.60;3.00;;;;;25.50;99258.00;;;;2086649;28;20451;-57
2022/08/15 04:15:37;;;;;;;10.63;3.90;;;;;25.50;99252.00;;;;2086807;28;20221;-56
2022/08/15 04:16:38;;;;;;;8.47;3.40;;;;;25.60;99254.00;;;;2077840;28;20275;-55
2022/08/15 04:17:38;;;;;;;4.73;3.30;;;;;25.60;99251.00;;;;2076970;28;20614;-55
2022/08/15 04:18:38;;;;;;;3.50;3.17;;;;;25.60;99254.00;;;;2086450;28;20228;-54
2022/08/15 04:19:39;;;;;;;3.87;3.47;;;;;25.50;99257.00;;;;2086662;28;20247;-55
2022/08/15 04:20:39;;;;;;;3.77;3.37;;;;;25.50;99254.00;;;;2083687;28;20217;-55
2022/08/15 04:21:40;;;;;;;3.50;3.20;;;;;25.50;99263.00;;;;2078394;28;20213;-54
2022/08/15 04:22:42;;;;;;;6.17;3.60;;;;;25.50;99294.00;;;;2077613;28;20304;-55
2022/08/15 04:23:44;;;;;;;3.97;3.23;;;;;25.50;99261.00;;;;2077649;28;20221;-55
2022/08/15 04:24:44;;;;;;;3.20;2.90;;;;;25.50;99257.00;;;;2077724;28;20888;-54
2022/08/15 04:25:44;;;;;;;5.53;3.23;;;;;25.50;99257.00;;;;2077081;28;20278;-55
2022/08/15 04:26:45;;;;;;;4.00;3.20;;;;;25.50;99298.00;;;;2078487;28;20217;-55
2022/08/15 04:27:46;;;;;;;4.43;2.90;;;;;25.50;99266.00;;;;2077734;28;20713;-54
2022/08/15 04:28:47;;;;;;;5.83;3.07;;;;;25.50;99265.00;;;;2078161;28;20304;-56
2022/08/15 04:29:47;;;;;;;4.23;3.20;;;;;25.50;99265.00;;;;2078271;28;20452;-55
2022/08/15 04:30:48;;;;;;;3.27;2.97;;;;;25.50;99264.00;;;;2078577;28;20237;-55
2022/08/15 04:31:48;;;;;;;3.63;3.00;;;;;25.50;99261.00;;;;2078485;28;20225;-54
2022/08/15 04:32:49;;;;;;;4.03;2.80;;;;;25.60;99265.00;;;;2077845;28;20217;-55
2022/08/15 04:33:49;;;;;;;3.10;2.80;;;;;25.60;99272.00;;;;2077597;28;20240;-55
2022/08/15 04:34:49;;;;;;;3.80;3.47;;;;;25.60;99267.00;;;;2076342;28;20468;-55
2022/08/15 04:35:58;;;;;;;3.77;3.03;;;;;25.60;99268.00;;;;2078353;28;20217;-55
2022/08/15 04:36:58;;;;;;;3.85;3.13;;;;;25.70;99272.00;;;;2077987;28;20237;-55
2022/08/15 04:37:58;;;;;;;5.40;2.73;;;;;25.60;99268.00;;;;2077086;28;20209;-55
2022/08/15 04:38:59;;;;;;;6.00;3.10;;;;;25.60;99269.00;;;;2078438;28;20213;-55
2022/08/15 04:39:59;;;;;;;3.40;3.10;;;;;25.60;99274.00;;;;2078329;28;20263;-54
2022/08/15 04:41:01;;;;;;;4.83;3.13;;;;;25.60;99268.00;;;;2078619;28;20206;-55
2022/08/15 04:42:02;;;;;;;5.20;2.87;;;;;25.60;99266.00;;;;2077880;28;20255;-56
2022/08/15 04:43:02;;;;;;;3.53;2.90;;;;;25.60;99268.00;;;;2078046;28;20984;-55
2022/08/15 04:44:05;;;;;;;3.50;3.10;;;;;25.60;99270.00;;;;2078490;28;20213;-55
2022/08/15 04:45:06;;;;;;;5.40;3.07;;;;;25.70;99265.00;;;;2077661;28;20312;-55
2022/08/15 04:46:07;;;;;;;3.30;2.77;;;;;25.70;99270.00;;;;2077729;28;20460;-55
2022/08/15 04:47:07;;;;;;;3.50;3.20;;;;;25.70;99258.00;;;;2080968;28;20304;-55
2022/08/15 04:48:08;;;;;;;3.53;2.97;;;;;25.70;99256.00;;;;2086026;28;20287;-55
2022/08/15 04:49:08;;;;;;;3.40;2.80;;;;;25.70;99252.00;;;;2085371;28;20232;-55
2022/08/15 04:50:09;;;;;;;2.97;2.67;;;;;25.70;99256.00;;;;2077778;28;20882;-55
2022/08/15 04:51:09;;;;;;;4.93;3.33;;;;;25.70;99256.00;;;;2077911;28;22471;-55
2022/08/15 04:52:18;;;;;;;4.10;2.80;;;;;25.70;99252.00;;;;2078034;28;20245;-55
2022/08/15 04:53:21;;;;;;;6.30;3.20;;;;;25.70;99273.00;;;;2078388;28;20268;-55
2022/08/15 04:54:22;;;;;;;4.23;3.30;;;;;25.70;99260.00;;;;2080543;28;20459;-55
2022/08/15 04:55:24;;;;;;;4.67;3.10;;;;;25.70;99254.00;;;;2086640;28;20471;-55
2022/08/15 04:56:24;;;;;;;3.30;3.00;;;;;25.70;99262.00;;;;2077751;28;20217;-55
2022/08/15 04:57:25;;;;;;;8.00;3.37;;;;;25.70;99248.00;;;;2077075;28;20453;-55
2022/08/15 04:58:25;;;;;;;6.67;3.27;;;;;25.70;99265.00;;;;2086786;28;20227;-55
2022/08/15 04:59:25;;;;;;;3.37;3.07;;;;;25.70;99269.00;;;;2086582;28;20229;-55
2022/08/15 05:00:27;;;;;;;5.93;3.27;;;;;25.70;99275.00;;;;2086627;28;20219;-55
2022/08/15 05:01:28;;;;;;;6.20;3.23;;;;;25.80;99270.00;;;;2086017;28;20221;-55
2022/08/15 05:02:28;;;;;;;4.90;3.13;;;;;25.80;99265.00;;;;2085982;28;20464;-55
2022/08/15 05:03:28;;;;;;;4.80;3.20;;;;;25.70;99262.00;;;;2086388;28;20306;-55
2022/08/15 05:04:29;;;;;;;3.40;3.10;;;;;25.70;99264.00;;;;2085584;28;20213;-55
2022/08/15 05:05:30;;;;;;;4.97;3.57;;;;;25.70;99258.00;;;;2087396;28;20251;-55
2022/08/15 05:06:30;;;;;;;3.70;3.17;;;;;25.70;99260.00;;;;2087588;28;20583;-55
2022/08/15 05:07:30;;;;;;;7.43;3.30;;;;;25.70;99262.00;;;;2086682;28;20205;-55
2022/08/15 05:08:32;;;;;;;3.17;2.77;;;;;25.70;99265.00;;;;2080305;28;20300;-55
2022/08/15 05:09:33;;;;;;;5.30;3.20;;;;;25.70;99256.00;;;;2079145;28;20225;-55
2022/08/15 05:10:33;;;;;;;8.63;3.00;;;;;25.70;99261.00;;;;2079374;28;20456;-55
2022/08/15 05:11:33;;;;;;;3.27;2.97;;;;;25.70;99271.00;;;;2080114;28;20506;-55
2022/08/15 05:12:35;;;;;;;4.07;2.90;;;;;25.70;99269.00;;;;2079088;28;20288;-55
2022/08/15 05:13:36;;;;;;;4.53;3.30;;;;;25.70;99276.00;;;;2076223;28;20706;-55